Time;durP1;ratioP1;P1;durP2;ratioP2;P2;SDS_P1;SDS_P2;PMS_P1;PMS_P2;Temp;Humidity;BMP_temperature;BMP_pressure;BME280_temperature;BME280_humidity;BME280_pressure;Samples;Min_cycle;Max_cycle;Signal;HPM_P1;HPM_P2
2022/03/12 00:01:10;;;;;;;0.50;0.50;;;0.80;60.60;;;;;;5073443;28;20521;-66
2022/03/12 00:03:59;;;;;;;0.60;0.60;;;0.80;60.70;;;;;;5073146;28;20419;-67
2022/03/12 00:06:46;;;;;;;10.00;9.27;;;0.80;61.00;;;;;;5073164;28;20425;-67
2022/03/12 00:09:34;;;;;;;0.50;0.50;;;0.80;60.90;;;;;;5073243;28;20633;-66
2022/03/12 00:12:21;;;;;;;0.50;0.50;;;0.80;60.90;;;;;;5065517;28;20419;-66
2022/03/12 00:15:14;;;;;;;1.57;1.47;;;0.80;61.10;;;;;;5074229;28;20764;-66
2022/03/12 00:18:01;;;;;;;3.57;3.37;;;0.70;61.10;;;;;;5072616;28;20416;-66
2022/03/12 00:20:48;;;;;;;0.50;0.50;;;0.70;61.10;;;;;;5072553;28;20479;-66
2022/03/12 00:23:35;;;;;;;1.27;1.27;;;0.60;61.20;;;;;;5073492;28;20416;-66
2022/03/12 00:26:23;;;;;;;1.97;1.90;;;0.60;61.30;;;;;;5072518;28;20422;-66
2022/03/12 00:29:14;;;;;;;0.50;0.50;;;0.60;61.40;;;;;;5073582;28;21003;-66
2022/03/12 00:32:05;;;;;;;0.50;0.50;;;0.60;61.50;;;;;;5078582;28;20442;-66
2022/03/12 00:34:52;;;;;;;0.97;0.97;;;0.50;61.50;;;;;;5088521;28;20428;-66
2022/03/12 00:37:39;;;;;;;0.50;0.50;;;0.50;61.30;;;;;;5086366;28;20463;-72
2022/03/12 00:40:26;;;;;;;0.50;0.50;;;0.50;61.50;;;;;;5087011;28;20440;-66
2022/03/12 00:43:15;;;;;;;0.50;0.50;;;0.50;61.50;;;;;;5087955;28;20936;-66
2022/03/12 00:46:02;;;;;;;0.50;0.50;;;0.50;61.50;;;;;;5088317;28;20420;-66
2022/03/12 00:48:51;;;;;;;1.77;1.63;;;0.50;61.50;;;;;;5087249;28;20490;-66
2022/03/12 00:51:38;;;;;;;0.83;0.83;;;0.50;61.50;;;;;;5089494;28;20429;-66
2022/03/12 00:54:25;;;;;;;0.50;0.50;;;0.50;61.60;;;;;;5086347;28;20424;-66
2022/03/12 00:57:13;;;;;;;0.50;0.50;;;0.40;61.80;;;;;;5087206;28;20474;-67
2022/03/12 01:00:00;;;;;;;0.90;0.90;;;0.40;62.00;;;;;;5087323;28;20428;-66
2022/03/12 01:02:47;;;;;;;1.10;1.10;;;0.40;62.20;;;;;;5081811;28;20427;-66
2022/03/12 01:05:57;;;;;;;0.50;0.50;;;0.30;62.30;;;;;;5089118;28;21014;-67
2022/03/12 01:08:44;;;;;;;0.50;0.50;;;0.20;62.60;;;;;;5089170;28;20823;-67
2022/03/12 01:11:31;;;;;;;0.50;0.50;;;0.20;62.80;;;;;;5090354;28;20486;-66
2022/03/12 01:14:18;;;;;;;0.50;0.50;;;0.10;62.80;;;;;;5088173;28;21060;-67
2022/03/12 01:17:07;;;;;;;0.50;0.50;;;0.10;63.00;;;;;;5086985;28;20452;-66
2022/03/12 01:19:54;;;;;;;0.50;0.50;;;0.20;63.20;;;;;;5088141;28;20430;-66
2022/03/12 01:22:42;;;;;;;1.07;1.07;;;0.20;63.10;;;;;;5087003;28;20451;-66
2022/03/12 01:25:29;;;;;;;0.70;0.70;;;0.20;63.30;;;;;;5073678;28;20427;-66
2022/03/12 01:28:17;;;;;;;0.50;0.50;;;0.20;63.10;;;;;;5073762;28;20424;-66
2022/03/12 01:31:04;;;;;;;0.80;0.80;;;0.20;63.10;;;;;;5075253;28;21069;-66
2022/03/12 01:33:51;;;;;;;0.50;0.50;;;0.20;63.40;;;;;;5077266;28;20427;-66
2022/03/12 01:36:38;;;;;;;1.00;1.00;;;0.20;63.40;;;;;;5076578;28;20463;-66
2022/03/12 01:39:27;;;;;;;6.10;1.90;;;0.10;63.60;;;;;;5076158;28;20431;-66
2022/03/12 01:42:15;;;;;;;0.97;0.97;;;0.10;63.70;;;;;;5076172;28;20434;-65
2022/03/12 01:45:02;;;;;;;0.40;0.40;;;0.10;64.00;;;;;;5076735;28;20428;-65
2022/03/12 01:47:48;;;;;;;1.53;1.43;;;0.00;63.90;;;;;;5076775;28;20932;-65
2022/03/12 01:50:37;;;;;;;1.23;1.23;;;0.00;64.10;;;;;;5076030;28;20616;-70
2022/03/12 01:53:26;;;;;;;3.50;3.23;;;0.00;64.30;;;;;;5076428;28;20424;-66
2022/03/12 01:56:15;;;;;;;0.50;0.50;;;-0.10;64.40;;;;;;5075621;28;20491;-66
2022/03/12 01:59:02;;;;;;;0.80;0.80;;;0.10;64.40;;;;;;5075900;28;20509;-65
2022/03/12 02:01:51;;;;;;;0.97;0.97;;;-0.10;64.50;;;;;;5075602;28;20432;-65
2022/03/12 02:04:38;;;;;;;0.50;0.50;;;-0.10;64.70;;;;;;5075274;28;20497;-65
2022/03/12 02:07:25;;;;;;;0.50;0.50;;;-0.20;64.80;;;;;;5074254;28;20415;-65
2022/03/12 02:10:13;;;;;;;0.50;0.50;;;-0.20;65.00;;;;;;5075916;28;21078;-66
2022/03/12 02:13:01;;;;;;;1.17;1.17;;;-0.30;65.20;;;;;;5073835;28;20457;-66
2022/03/12 02:15:48;;;;;;;0.50;0.50;;;-0.30;65.30;;;;;;5078787;28;20423;-66
2022/03/12 02:18:36;;;;;;;1.27;1.27;;;-0.30;65.50;;;;;;5080896;28;20457;-66
2022/03/12 02:21:35;;;;;;;1.53;1.53;;;-0.40;65.60;;;;;;5094190;28;20442;-66
2022/03/12 02:24:26;;;;;;;0.50;0.50;;;-0.40;65.70;;;;;;5093769;28;20419;-66
2022/03/12 02:27:13;;;;;;;0.50;0.50;;;-0.40;65.70;;;;;;5093277;28;20418;-66
2022/03/12 02:30:02;;;;;;;0.50;0.50;;;-0.40;66.10;;;;;;5094361;28;20414;-66
2022/03/12 02:32:56;;;;;;;2.00;1.90;;;-0.40;66.10;;;;;;5095653;28;20415;-66
2022/03/12 02:35:46;;;;;;;1.50;1.50;;;-0.40;66.10;;;;;;5093875;28;21020;-65
2022/03/12 02:38:35;;;;;;;0.50;0.50;;;-0.40;65.90;;;;;;5094007;28;20679;-66
2022/03/12 02:41:25;;;;;;;0.87;0.87;;;-0.40;66.10;;;;;;5094702;28;20436;-66
2022/03/12 02:44:20;;;;;;;0.50;0.50;;;-0.40;66.20;;;;;;5094861;28;20911;-66
2022/03/12 02:47:14;;;;;;;0.50;0.50;;;-0.40;66.40;;;;;;5093587;28;21006;-66
2022/03/12 02:50:06;;;;;;;0.50;0.50;;;-0.50;66.50;;;;;;5095023;28;20435;-66
2022/03/12 02:52:52;;;;;;;1.00;1.00;;;-0.50;66.60;;;;;;5094209;28;20423;-66
2022/03/12 02:55:42;;;;;;;1.17;1.07;;;-0.40;66.70;;;;;;5093978;28;20423;-66
2022/03/12 02:58:30;;;;;;;0.50;0.50;;;-0.40;66.70;;;;;;5073182;28;20478;-66
2022/03/12 03:01:17;;;;;;;2.93;2.20;;;-0.40;66.70;;;;;;5073133;28;20448;-66
2022/03/12 03:04:04;;;;;;;0.57;0.57;;;-0.40;66.80;;;;;;5074268;28;20424;-66
2022/03/12 03:06:51;;;;;;;0.90;0.90;;;-0.50;66.90;;;;;;5075097;28;20425;-67
2022/03/12 03:09:39;;;;;;;2.40;2.30;;;-0.50;67.10;;;;;;5073928;28;20427;-66
2022/03/12 03:12:26;;;;;;;0.40;0.40;;;-0.50;67.30;;;;;;5074309;28;20984;-66
2022/03/12 03:15:15;;;;;;;0.50;0.50;;;-0.50;67.20;;;;;;5073428;28;20427;-66
2022/03/12 03:18:08;;;;;;;3.70;3.50;;;-0.50;67.20;;;;;;5073481;28;21037;-66
2022/03/12 03:20:56;;;;;;;0.50;0.50;;;-0.50;67.20;;;;;;5073435;28;20470;-66
2022/03/12 03:23:44;;;;;;;0.50;0.50;;;-0.50;67.30;;;;;;5073400;28;20431;-66
2022/03/12 03:26:50;;;;;;;0.50;0.50;;;-0.60;67.30;;;;;;5073267;28;20424;-66
2022/03/12 03:29:37;;;;;;;0.80;0.80;;;-0.60;67.60;;;;;;5073211;28;20831;-66
2022/03/12 03:32:25;;;;;;;0.50;0.50;;;-0.60;67.70;;;;;;5073135;28;20473;-67
2022/03/12 03:35:12;;;;;;;0.43;0.43;;;-0.60;68.00;;;;;;5072497;28;20942;-66
2022/03/12 03:37:59;;;;;;;0.50;0.50;;;-0.70;68.00;;;;;;5071947;28;20460;-66
2022/03/12 03:40:47;;;;;;;0.50;0.50;;;-0.70;68.10;;;;;;5073506;28;20986;-66
2022/03/12 03:43:34;;;;;;;0.73;0.73;;;-0.60;68.10;;;;;;5072362;28;20935;-66
2022/03/12 03:46:22;;;;;;;0.50;0.50;;;-0.70;68.20;;;;;;5073134;28;20474;-66
2022/03/12 03:49:10;;;;;;;1.87;1.80;;;-0.70;68.10;;;;;;5072811;28;20427;-66
2022/03/12 03:51:58;;;;;;;2.67;2.53;;;-0.70;68.00;;;;;;5071602;28;20952;-66
2022/03/12 03:54:46;;;;;;;0.50;0.50;;;-0.60;68.00;;;;;;5072742;28;20842;-66
2022/03/12 03:57:32;;;;;;;0.60;0.60;;;-0.60;68.10;;;;;;5071743;28;21007;-66
2022/03/12 04:00:22;;;;;;;0.87;0.87;;;-0.60;68.00;;;;;;5072738;28;20870;-66
2022/03/12 04:03:10;;;;;;;0.50;0.50;;;-0.60;67.90;;;;;;5072447;28;20420;-66
2022/03/12 04:05:58;;;;;;;0.97;0.93;;;-0.70;68.20;;;;;;5073591;28;20439;-66
2022/03/12 04:08:45;;;;;;;2.43;1.77;;;-0.70;68.10;;;;;;5072872;28;20823;-66
2022/03/12 04:11:33;;;;;;;2.33;2.23;;;-0.70;68.00;;;;;;5071815;28;20464;-67
2022/03/12 04:14:20;;;;;;;0.47;0.47;;;-0.70;67.90;;;;;;5072388;28;20424;-66
2022/03/12 04:17:07;;;;;;;0.50;0.50;;;-0.70;68.00;;;;;;5072927;28;20467;-66
2022/03/12 04:19:54;;;;;;;0.50;0.50;;;-0.70;68.30;;;;;;5072620;28;20423;-66
2022/03/12 04:22:42;;;;;;;0.50;0.50;;;-0.80;68.40;;;;;;5072417;28;20420;-66
2022/03/12 04:25:31;;;;;;;0.50;0.50;;;-0.80;68.40;;;;;;5073301;28;20435;-66
2022/03/12 04:28:17;;;;;;;1.10;1.10;;;-1.00;68.40;;;;;;5072481;28;20444;-66
2022/03/12 04:31:07;;;;;;;0.50;0.50;;;-0.90;68.60;;;;;;5072500;28;20986;-66
2022/03/12 04:33:54;;;;;;;0.50;0.50;;;-0.80;68.60;;;;;;5072415;28;20428;-66
2022/03/12 04:36:41;;;;;;;1.47;1.37;;;-0.80;68.60;;;;;;5071688;28;20432;-66
2022/03/12 04:39:29;;;;;;;0.43;0.43;;;-0.90;68.70;;;;;;5071464;28;20427;-66
2022/03/12 04:42:18;;;;;;;1.93;1.83;;;-0.90;69.10;;;;;;5071351;28;21208;-66
2022/03/12 04:45:08;;;;;;;0.40;0.40;;;-1.00;69.00;;;;;;5071863;28;20952;-66
2022/03/12 04:47:55;;;;;;;1.43;1.13;;;-1.00;69.10;;;;;;5071897;28;20416;-66
2022/03/12 04:50:42;;;;;;;0.50;0.50;;;-1.00;69.20;;;;;;5070390;28;20972;-66
2022/03/12 04:53:29;;;;;;;0.87;0.87;;;-1.10;69.50;;;;;;5071748;28;20491;-66
2022/03/12 04:56:17;;;;;;;0.47;0.47;;;-1.10;69.60;;;;;;5072174;28;20435;-66
2022/03/12 04:59:04;;;;;;;0.50;0.50;;;-1.10;69.50;;;;;;5072463;28;20464;-66
2022/03/12 05:01:51;;;;;;;0.50;0.50;;;-1.10;69.60;;;;;;5071765;28;21022;-70
2022/03/12 05:04:38;;;;;;;0.50;0.50;;;-1.20;70.00;;;;;;5072455;28;20424;-67
2022/03/12 05:07:26;;;;;;;0.60;0.60;;;-1.30;69.90;;;;;;5076389;28;20805;-66
2022/03/12 05:10:14;;;;;;;0.50;0.50;;;-1.20;69.90;;;;;;5076684;28;20950;-66
2022/03/12 05:13:04;;;;;;;0.97;0.97;;;-1.20;70.00;;;;;;5075881;28;20415;-66
2022/03/12 05:15:52;;;;;;;2.00;0.90;;;-1.20;69.90;;;;;;5076127;28;20424;-67
2022/03/12 05:18:40;;;;;;;0.50;0.50;;;-1.20;69.80;;;;;;5076139;28;20502;-66
2022/03/12 05:21:27;;;;;;;0.90;0.90;;;-1.10;69.90;;;;;;5076240;28;20463;-66
2022/03/12 05:24:14;;;;;;;0.50;0.50;;;-1.10;70.00;;;;;;5075694;28;20416;-66
2022/03/12 05:27:02;;;;;;;0.50;0.50;;;-1.20;70.00;;;;;;5076783;28;20428;-66
2022/03/12 05:29:51;;;;;;;0.50;0.50;;;-1.20;70.20;;;;;;5076334;28;20562;-66
2022/03/12 05:32:38;;;;;;;0.50;0.50;;;-1.20;70.30;;;;;;5075944;28;20431;-66
2022/03/12 05:35:25;;;;;;;0.40;0.40;;;-1.30;70.30;;;;;;5075708;28;20959;-66
2022/03/12 05:38:13;;;;;;;0.40;0.40;;;-1.30;70.50;;;;;;5076183;28;20521;-66
2022/03/12 05:41:00;;;;;;;0.50;0.50;;;-1.30;70.40;;;;;;5076154;28;20448;-66
2022/03/12 05:43:47;;;;;;;1.17;1.17;;;-1.10;70.80;;;;;;5075970;28;20974;-66
2022/03/12 05:46:35;;;;;;;0.50;0.50;;;-1.20;70.70;;;;;;5076194;28;20430;-66
2022/03/12 05:49:22;;;;;;;0.40;0.40;;;-1.20;70.60;;;;;;5075772;28;20430;-66
2022/03/12 05:52:09;;;;;;;0.53;0.53;;;-1.20;70.80;;;;;;5075011;28;20471;-66
2022/03/12 05:54:56;;;;;;;0.50;0.50;;;-1.10;70.60;;;;;;5075253;28;20886;-66
2022/03/12 05:57:44;;;;;;;0.50;0.50;;;-1.10;70.60;;;;;;5075110;28;20460;-66
2022/03/12 06:00:32;;;;;;;0.50;0.50;;;-1.00;70.70;;;;;;5074948;28;20439;-66
2022/03/12 06:03:20;;;;;;;0.77;0.77;;;-1.10;70.80;;;;;;5074566;28;20426;-66
2022/03/12 06:06:08;;;;;;;0.50;0.50;;;-1.10;71.00;;;;;;5074958;28;20428;-66
2022/03/12 06:08:58;;;;;;;0.50;0.50;;;-1.00;70.70;;;;;;5075919;28;20996;-65
2022/03/12 06:11:46;;;;;;;0.60;0.60;;;-1.00;70.60;;;;;;5075204;28;20582;-65
2022/03/12 06:14:36;;;;;;;0.50;0.50;;;-1.10;70.50;;;;;;5075025;28;20424;-65
2022/03/12 06:17:25;;;;;;;1.00;1.00;;;-0.90;70.70;;;;;;5074983;28;22362;-66
2022/03/12 06:20:15;;;;;;;0.50;0.50;;;-0.80;70.60;;;;;;5074898;28;20440;-66
2022/03/12 06:23:02;;;;;;;0.87;0.87;;;-0.80;70.80;;;;;;5075166;28;20492;-65
2022/03/12 06:25:51;;;;;;;0.50;0.50;;;-0.80;70.60;;;;;;5073974;28;20426;-66
2022/03/12 06:28:38;;;;;;;0.70;0.70;;;-0.70;70.50;;;;;;5074966;28;20424;-66
2022/03/12 06:31:25;;;;;;;0.60;0.60;;;-0.70;70.30;;;;;;5075200;28;20447;-66
2022/03/12 06:34:12;;;;;;;0.70;0.70;;;-0.50;70.40;;;;;;5074041;28;20932;-66
2022/03/12 06:37:00;;;;;;;0.50;0.50;;;-0.50;70.00;;;;;;5074668;28;20807;-66
2022/03/12 06:39:47;;;;;;;1.63;1.63;;;-0.50;69.70;;;;;;5074572;28;20424;-66
2022/03/12 06:42:34;;;;;;;0.60;0.60;;;-0.40;69.60;;;;;;5074666;28;20431;-66
2022/03/12 06:45:21;;;;;;;0.50;0.50;;;-0.40;69.60;;;;;;5074199;28;20431;-66
2022/03/12 06:48:08;;;;;;;0.40;0.40;;;-0.30;69.50;;;;;;5074146;28;20408;-66
2022/03/12 06:50:56;;;;;;;0.50;0.50;;;-0.20;69.40;;;;;;5075015;28;20451;-66
2022/03/12 06:53:44;;;;;;;0.77;0.77;;;-0.10;69.30;;;;;;5074998;28;20412;-66
2022/03/12 06:56:34;;;;;;;0.40;0.40;;;-0.10;69.40;;;;;;5074669;28;20424;-66
2022/03/12 06:59:21;;;;;;;0.50;0.50;;;0.00;69.20;;;;;;5075325;28;21039;-67
2022/03/12 07:02:08;;;;;;;0.53;0.53;;;0.00;69.10;;;;;;5075515;28;20820;-66
2022/03/12 07:04:55;;;;;;;0.70;0.70;;;0.10;68.90;;;;;;5081248;28;20432;-67
2022/03/12 07:07:42;;;;;;;0.60;0.60;;;0.10;68.70;;;;;;5079802;28;20420;-67
2022/03/12 07:10:30;;;;;;;0.50;0.50;;;0.20;68.30;;;;;;5081108;28;20459;-66
2022/03/12 07:13:17;;;;;;;8.53;2.77;;;0.30;68.10;;;;;;5082178;28;20495;-67
2022/03/12 07:16:05;;;;;;;2.33;2.20;;;0.40;68.10;;;;;;5078747;28;20928;-66
2022/03/12 07:18:52;;;;;;;1.17;1.07;;;0.50;67.90;;;;;;5080706;28;20458;-67
2022/03/12 07:21:39;;;;;;;2.43;2.33;;;0.50;67.70;;;;;;5082378;28;20448;-68
2022/03/12 07:24:25;;;;;;;3.60;3.50;;;0.60;67.70;;;;;;5080675;28;20447;-66
2022/03/12 07:27:14;;;;;;;0.50;0.50;;;0.80;67.40;;;;;;5080737;28;20432;-67
2022/03/12 07:30:01;;;;;;;0.97;0.97;;;0.80;66.80;;;;;;5079769;28;20428;-67
2022/03/12 07:32:49;;;;;;;1.93;1.83;;;0.90;66.30;;;;;;5079141;28;20446;-67
2022/03/12 07:35:36;;;;;;;0.50;0.50;;;1.00;66.90;;;;;;5078271;28;20455;-67
2022/03/12 07:38:23;;;;;;;0.60;0.60;;;1.10;65.80;;;;;;5074669;28;20472;-66
2022/03/12 07:41:12;;;;;;;0.83;0.83;;;1.20;65.30;;;;;;5075623;28;20820;-67
2022/03/12 07:44:00;;;;;;;2.60;2.40;;;1.30;65.20;;;;;;5074146;28;20455;-67
2022/03/12 07:46:47;;;;;;;0.73;0.73;;;1.40;64.90;;;;;;5075773;28;20420;-66
2022/03/12 07:49:34;;;;;;;2.57;2.47;;;1.50;64.20;;;;;;5077702;28;20423;-67
2022/03/12 07:52:21;;;;;;;0.50;0.50;;;1.60;64.40;;;;;;5080141;28;20424;-66
2022/03/12 07:55:09;;;;;;;0.50;0.50;;;1.70;64.30;;;;;;5082081;28;20430;-66
2022/03/12 07:57:56;;;;;;;5.30;3.13;;;1.90;63.30;;;;;;5087249;28;20460;-67
2022/03/12 08:00:44;;;;;;;0.50;0.50;;;2.00;62.80;;;;;;5087504;28;20477;-67
2022/03/12 08:03:35;;;;;;;0.67;0.67;;;2.10;62.60;;;;;;5088064;28;20416;-66
2022/03/12 08:06:22;;;;;;;3.53;3.30;;;2.10;62.60;;;;;;5089522;28;20415;-67
2022/03/12 08:09:09;;;;;;;0.60;0.60;;;2.20;62.60;;;;;;5088962;28;20428;-67
2022/03/12 08:11:57;;;;;;;0.90;0.87;;;2.30;61.80;;;;;;5091816;22;20487;-70
2022/03/12 08:14:45;;;;;;;2.20;0.80;;;2.50;61.60;;;;;;5073755;28;20522;-70
2022/03/12 08:17:34;;;;;;;1.33;1.33;;;2.60;60.90;;;;;;5073625;28;21244;-70
2022/03/12 08:20:21;;;;;;;0.60;0.60;;;2.70;60.80;;;;;;5073911;28;20431;-69
2022/03/12 08:23:08;;;;;;;0.40;0.40;;;2.70;60.30;;;;;;5073690;28;20481;-69
2022/03/12 08:25:57;;;;;;;0.50;0.50;;;2.80;59.90;;;;;;5073166;28;20416;-69
2022/03/12 08:28:44;;;;;;;1.20;1.20;;;3.00;58.90;;;;;;5074228;28;20419;-69
2022/03/12 08:31:31;;;;;;;0.50;0.50;;;3.10;58.30;;;;;;5073896;28;20447;-70
2022/03/12 08:34:20;;;;;;;0.90;0.90;;;3.20;57.90;;;;;;5073560;28;20419;-69
2022/03/12 08:37:07;;;;;;;1.77;1.67;;;3.30;57.50;;;;;;5074039;28;20416;-70
2022/03/12 08:39:54;;;;;;;1.00;0.70;;;3.50;57.20;;;;;;5082605;28;20464;-70
2022/03/12 08:42:41;;;;;;;0.40;0.40;;;3.60;56.90;;;;;;5076104;28;20431;-69
2022/03/12 08:45:28;;;;;;;1.23;1.23;;;3.70;55.60;;;;;;5073444;28;20440;-70
2022/03/12 08:48:15;;;;;;;0.40;0.40;;;3.80;55.90;;;;;;5074228;28;20806;-70
2022/03/12 08:51:04;;;;;;;0.50;0.50;;;3.90;55.70;;;;;;5072970;28;20860;-70
2022/03/12 08:53:51;;;;;;;0.50;0.50;;;4.00;55.00;;;;;;5072329;28;20809;-70
2022/03/12 08:56:39;;;;;;;1.53;1.53;;;4.10;55.00;;;;;;5077791;28;20434;-70
2022/03/12 08:59:26;;;;;;;0.80;0.80;;;4.10;54.80;;;;;;5094071;28;20843;-70
2022/03/12 09:02:13;;;;;;;1.20;1.20;;;4.20;53.70;;;;;;5093812;28;20473;-70
2022/03/12 09:05:01;;;;;;;0.50;0.50;;;4.30;53.40;;;;;;5092699;28;20430;-69
2022/03/12 09:07:51;;;;;;;0.40;0.40;;;4.40;53.60;;;;;;5093837;28;20427;-70
2022/03/12 09:10:38;;;;;;;0.40;0.40;;;4.50;53.10;;;;;;5094086;28;20539;-70
2022/03/12 09:13:25;;;;;;;0.60;0.60;;;4.50;53.20;;;;;;5092967;28;20423;-70
2022/03/12 09:16:13;;;;;;;0.40;0.40;;;4.60;53.10;;;;;;5093946;28;20427;-70
2022/03/12 09:19:00;;;;;;;0.70;0.70;;;4.70;52.90;;;;;;5093631;28;20552;-70
2022/03/12 09:21:47;;;;;;;0.90;0.90;;;4.80;52.90;;;;;;5093302;28;20446;-69
2022/03/12 09:24:38;;;;;;;0.50;0.50;;;4.80;52.80;;;;;;5093886;28;20438;-69
2022/03/12 09:27:25;;;;;;;0.70;0.70;;;5.10;52.70;;;;;;5095082;28;20508;-69
2022/03/12 09:30:13;;;;;;;0.40;0.40;;;5.10;52.40;;;;;;5095044;28;20439;-69
2022/03/12 09:33:00;;;;;;;0.40;0.40;;;5.20;51.40;;;;;;5095152;28;20423;-69
2022/03/12 09:35:47;;;;;;;0.40;0.40;;;5.30;50.10;;;;;;5095223;28;20430;-69
2022/03/12 09:38:34;;;;;;;1.17;1.07;;;5.40;50.00;;;;;;5093724;28;20450;-69
2022/03/12 09:41:22;;;;;;;0.50;0.50;;;5.50;50.00;;;;;;5086432;28;20446;-69
2022/03/12 09:44:09;;;;;;;0.60;0.60;;;5.50;49.40;;;;;;5094267;28;20783;-69
2022/03/12 09:46:56;;;;;;;0.40;0.40;;;5.60;49.30;;;;;;5093603;28;20422;-69
2022/03/12 09:49:43;;;;;;;0.40;0.40;;;5.70;49.70;;;;;;5096934;28;20431;-70
2022/03/12 09:52:30;;;;;;;0.50;0.50;;;5.70;49.60;;;;;;5103973;28;20978;-70
2022/03/12 09:55:19;;;;;;;0.60;0.60;;;5.80;49.40;;;;;;5099453;28;20422;-69
2022/03/12 09:58:07;;;;;;;0.40;0.40;;;5.80;49.20;;;;;;5081234;28;20427;-70
2022/03/12 10:00:54;;;;;;;1.07;0.90;;;5.90;49.10;;;;;;5077787;28;20827;-70
2022/03/12 10:03:42;;;;;;;3.83;3.63;;;6.00;48.90;;;;;;5077000;28;20427;-69
2022/03/12 10:06:30;;;;;;;0.50;0.50;;;6.00;49.10;;;;;;5078040;28;20426;-70
2022/03/12 10:09:17;;;;;;;0.90;0.87;;;6.00;49.20;;;;;;5080835;28;20437;-71
2022/03/12 10:12:05;;;;;;;0.40;0.40;;;6.10;49.50;;;;;;5085686;28;20463;-69
2022/03/12 10:14:53;;;;;;;0.50;0.50;;;6.20;49.30;;;;;;5086822;28;20456;-69
2022/03/12 10:17:40;;;;;;;0.40;0.40;;;6.20;49.30;;;;;;5076433;28;20423;-69
2022/03/12 10:20:28;;;;;;;0.40;0.40;;;6.30;48.90;;;;;;5075346;28;21006;-70
2022/03/12 10:23:15;;;;;;;0.50;0.50;;;6.30;49.10;;;;;;5076249;28;20419;-70
2022/03/12 10:26:03;;;;;;;0.40;0.40;;;6.40;48.90;;;;;;5077552;28;20428;-69
2022/03/12 10:28:49;;;;;;;0.50;0.50;;;6.50;48.80;;;;;;5076839;28;20423;-69
2022/03/12 10:31:38;;;;;;;0.50;0.50;;;6.50;48.60;;;;;;5075766;28;20440;-70
2022/03/12 10:34:27;;;;;;;0.70;0.70;;;6.60;48.80;;;;;;5076643;28;20510;-69
2022/03/12 10:37:19;;;;;;;1.90;1.77;;;6.60;48.80;;;;;;5076299;28;20420;-70
2022/03/12 10:40:10;;;;;;;1.63;1.17;;;6.90;47.80;;;;;;5075895;28;20471;-70
2022/03/12 10:42:59;;;;;;;1.67;1.17;;;6.80;48.30;;;;;;5081165;28;20424;-70
2022/03/12 10:45:49;;;;;;;0.50;0.50;;;6.90;47.50;;;;;;5087900;28;20458;-70
2022/03/12 10:48:39;;;;;;;0.60;0.60;;;7.00;48.00;;;;;;5075671;28;20960;-70
2022/03/12 10:51:28;;;;;;;0.60;0.60;;;7.10;48.20;;;;;;5074852;28;20444;-69
2022/03/12 10:54:16;;;;;;;0.40;0.40;;;7.20;48.10;;;;;;5074346;28;20428;-70
2022/03/12 10:57:03;;;;;;;0.40;0.40;;;7.30;47.70;;;;;;5074794;28;20436;-69
2022/03/12 10:59:54;;;;;;;0.70;0.67;;;7.30;47.20;;;;;;5074223;28;20495;-70
2022/03/12 11:02:42;;;;;;;0.60;0.60;;;7.40;46.80;;;;;;5074957;28;20427;-69
2022/03/12 11:05:34;;;;;;;0.40;0.40;;;7.50;47.40;;;;;;5073913;28;20562;-69
2022/03/12 11:08:23;;;;;;;0.40;0.40;;;7.50;46.80;;;;;;5073623;28;20522;-70
2022/03/12 11:11:12;;;;;;;0.40;0.40;;;7.60;46.90;;;;;;5073650;28;20462;-70
2022/03/12 11:14:02;;;;;;;0.60;0.60;;;7.70;46.20;;;;;;5074284;28;20430;-70
2022/03/12 11:16:53;;;;;;;1.63;1.53;;;7.70;46.70;;;;;;5074812;28;20855;-69
2022/03/12 11:19:45;;;;;;;0.40;0.40;;;7.80;47.40;;;;;;5074637;28;21060;-70
2022/03/12 11:22:34;;;;;;;10.10;1.10;;;7.80;47.20;;;;;;5073038;28;20518;-70
2022/03/12 11:25:22;;;;;;;0.40;0.40;;;7.90;47.10;;;;;;5075050;28;20809;-69
2022/03/12 11:28:18;;;;;;;0.50;0.50;;;8.00;47.00;;;;;;5073712;28;20802;-69
2022/03/12 11:31:07;;;;;;;0.40;0.40;;;8.10;47.00;;;;;;5073270;28;20455;-70
2022/03/12 11:33:55;;;;;;;0.40;0.40;;;9.20;47.80;;;;;;5073929;28;20432;-72
2022/03/12 11:36:43;;;;;;;0.40;0.40;;;8.10;46.90;;;;;;5074450;28;20416;-70
2022/03/12 11:39:34;;;;;;;0.40;0.40;;;8.20;46.60;;;;;;5072731;28;20509;-70
2022/03/12 11:42:24;;;;;;;0.40;0.40;;;8.40;46.40;;;;;;5073948;28;20475;-70
2022/03/12 11:45:14;;;;;;;0.40;0.40;;;8.40;46.10;;;;;;5074211;28;20424;-70
2022/03/12 11:48:01;;;;;;;0.60;0.60;;;8.40;45.60;;;;;;5091640;28;20950;-70
2022/03/12 11:50:48;;;;;;;0.40;0.40;;;8.50;45.70;;;;;;5092822;28;20921;-70
2022/03/12 11:53:38;;;;;;;1.13;1.07;;;8.60;44.50;;;;;;5093704;28;20427;-70
2022/03/12 11:56:27;;;;;;;0.50;0.50;;;8.60;44.40;;;;;;5091183;28;20493;-70
2022/03/12 11:59:14;;;;;;;1.47;0.77;;;8.70;44.90;;;;;;5079339;28;20472;-70
2022/03/12 12:02:04;;;;;;;0.40;0.40;;;8.80;44.30;;;;;;5089620;28;20455;-69
2022/03/12 12:04:52;;;;;;;0.50;0.50;;;8.90;44.70;;;;;;5089477;28;20427;-70
2022/03/12 12:07:41;;;;;;;0.40;0.40;;;9.00;44.50;;;;;;5089272;28;20428;-70
2022/03/12 12:10:30;;;;;;;0.40;0.40;;;8.90;44.60;;;;;;5082970;28;20435;-70
2022/03/12 12:13:19;;;;;;;0.77;0.77;;;9.00;44.00;;;;;;5073317;28;20952;-70
2022/03/12 12:16:06;;;;;;;0.60;0.60;;;9.10;43.60;;;;;;5073388;28;20423;-70
2022/03/12 12:18:53;;;;;;;0.40;0.40;;;9.20;41.90;;;;;;5072971;28;20423;-70
2022/03/12 12:21:40;;;;;;;0.50;0.50;;;9.20;42.00;;;;;;5073186;28;20439;-70
2022/03/12 12:24:29;;;;;;;0.50;0.50;;;9.30;41.60;;;;;;5072644;28;20432;-70
2022/03/12 12:27:18;;;;;;;0.40;0.40;;;9.30;41.80;;;;;;5073280;28;20434;-70
2022/03/12 12:30:09;;;;;;;0.70;0.70;;;9.50;41.50;;;;;;5074705;28;20432;-70
2022/03/12 12:33:01;;;;;;;0.40;0.40;;;9.40;41.70;;;;;;5074038;28;20916;-70
2022/03/12 12:35:49;;;;;;;0.50;0.50;;;9.50;41.80;;;;;;5072358;28;20425;-70
2022/03/12 12:38:39;;;;;;;0.40;0.40;;;9.40;42.40;;;;;;5073125;28;20955;-69
2022/03/12 12:41:51;;;;;;;0.43;0.43;;;9.50;42.50;;;;;;5072775;28;20982;-70
2022/03/12 12:44:43;;;;;;;0.40;0.40;;;9.60;42.90;;;;;;5073438;28;20521;-70
2022/03/12 12:47:32;;;;;;;0.43;0.43;;;9.60;42.80;;;;;;5084267;28;20420;-69
2022/03/12 12:50:22;;;;;;;0.40;0.40;;;9.80;41.90;;;;;;5081140;28;20673;-70
2022/03/12 12:53:11;;;;;;;0.40;0.40;;;9.90;41.50;;;;;;5073047;28;20435;-70
2022/03/12 12:56:23;;;;;;;0.40;0.40;;;9.90;41.50;;;;;;5073089;28;20459;-70
2022/03/12 12:59:12;;;;;;;0.40;0.40;;;10.00;40.90;;;;;;5051297;28;20432;-69
2022/03/12 13:01:59;;;;;;;1.37;1.27;;;10.00;40.70;;;;;;5053230;28;20648;-70
2022/03/12 13:04:50;;;;;;;0.60;0.60;;;10.00;40.10;;;;;;5052828;28;20864;-70
2022/03/12 13:07:59;;;;;;;1.17;1.07;;;10.30;39.90;;;;;;5052104;28;20440;-72
2022/03/12 13:10:46;;;;;;;0.80;0.80;;;10.50;39.50;;;;;;5052372;28;20505;-70
2022/03/12 13:13:33;;;;;;;0.50;0.50;;;10.60;39.10;;;;;;5051904;28;20431;-70
2022/03/12 13:16:20;;;;;;;0.40;0.40;;;11.00;38.80;;;;;;5051876;28;20424;-71
2022/03/12 13:19:27;;;;;;;0.90;0.90;;;11.20;38.80;;;;;;5052004;28;20504;-69
2022/03/12 13:22:17;;;;;;;0.50;0.50;;;11.50;38.30;;;;;;5051643;28;20444;-72
2022/03/12 13:25:06;;;;;;;0.53;0.53;;;11.60;38.00;;;;;;5052383;28;20478;-70
2022/03/12 13:28:01;;;;;;;0.40;0.40;;;11.90;37.00;;;;;;5055448;28;20439;-70
2022/03/12 13:30:48;;;;;;;0.40;0.40;;;12.30;36.90;;;;;;5056541;28;20451;-70
2022/03/12 13:33:35;;;;;;;0.60;0.60;;;12.80;37.00;;;;;;5055267;28;20462;-72
2022/03/12 13:36:25;;;;;;;0.57;0.57;;;13.40;37.10;;;;;;5058410;28;20443;-70
2022/03/12 13:39:15;;;;;;;0.40;0.40;;;14.30;36.50;;;;;;5061519;28;20934;-70
2022/03/12 13:42:03;;;;;;;0.40;0.40;;;14.90;36.20;;;;;;5059158;28;20523;-71
2022/03/12 13:44:50;;;;;;;0.40;0.40;;;15.60;35.00;;;;;;5056057;28;20197;-70
2022/03/12 13:47:37;;;;;;;1.70;0.93;;;16.60;33.70;;;;;;5055859;28;20284;-71
2022/03/12 13:50:25;;;;;;;4.53;0.82;;;17.40;33.40;;;;;;5056565;28;20190;-71
2022/03/12 13:53:13;;;;;;;1.02;0.60;;;18.20;32.20;;;;;;5056170;28;20212;-71
2022/03/12 13:56:06;;;;;;;0.40;0.40;;;19.50;31.40;;;;;;5055790;28;20303;-71
2022/03/12 13:58:53;;;;;;;0.40;0.40;;;20.30;30.50;;;;;;5055578;28;20589;-71
2022/03/12 14:01:42;;;;;;;0.60;0.60;;;21.10;30.20;;;;;;5055106;28;20297;-73
2022/03/12 14:04:30;;;;;;;0.40;0.40;;;21.90;30.00;;;;;;5055053;28;20272;-70
2022/03/12 14:07:19;;;;;;;0.40;0.40;;;22.60;30.00;;;;;;5054291;28;20210;-70
2022/03/12 14:10:06;;;;;;;0.40;0.40;;;22.60;29.20;;;;;;5054291;28;20275;-72
2022/03/12 14:13:03;;;;;;;0.40;0.40;;;22.40;28.60;;;;;;5095367;23;20785;-67
2022/03/12 14:15:50;;;;;;;1.00;1.00;;;21.90;28.20;;;;;;5074247;28;20200;-68
2022/03/12 14:18:38;;;;;;;0.40;0.40;;;20.90;28.30;;;;;;5074857;28;20267;-68
2022/03/12 14:21:37;;;;;;;0.60;0.60;;;20.20;28.80;;;;;;5074391;28;20374;-70
2022/03/12 14:24:25;;;;;;;1.02;1.02;;;20.00;28.60;;;;;;5074041;28;20242;-68
2022/03/12 14:27:12;;;;;;;0.45;0.45;;;19.70;28.90;;;;;;5073968;28;20205;-68
2022/03/12 14:30:00;;;;;;;0.50;0.50;;;19.50;29.10;;;;;;5073790;28;20197;-68
2022/03/12 14:32:49;;;;;;;0.40;0.40;;;20.60;29.30;;;;;;5073934;28;20227;-68
2022/03/12 14:35:37;;;;;;;0.40;0.40;;;21.60;29.20;;;;;;5075371;28;20298;-67
2022/03/12 14:38:24;;;;;;;1.63;1.63;;;23.00;29.20;;;;;;5073256;28;20212;-67
2022/03/12 14:41:11;;;;;;;0.50;0.50;;;23.80;28.20;;;;;;5074564;28;20228;-66
2022/03/12 14:43:58;;;;;;;1.33;1.25;;;23.60;27.80;;;;;;5075377;28;20719;-67